createdAt,value
2019-02-24T00:01:19.241Z,102633.13
2019-02-24T00:03:49.607Z,102634.61
2019-02-24T00:06:19.981Z,102637.20
2019-02-24T00:08:54.981Z,102636.58
2019-02-24T00:11:31.399Z,102631.34
2019-02-24T00:14:05.426Z,102641.09
2019-02-24T00:16:36.513Z,102640.15
2019-02-24T00:19:13.966Z,102650.39
2019-02-24T00:21:44.452Z,102643.30
2019-02-24T00:24:25.962Z,102649.77
2019-02-24T00:26:59.700Z,102647.64
2019-02-24T00:29:32.540Z,102630.09
2019-02-24T00:32:06.025Z,102638.28
2019-02-24T00:34:36.536Z,102638.84
2019-02-24T00:37:06.898Z,102639.47
2019-02-24T00:39:39.984Z,102641.42
2019-02-24T00:42:13.205Z,102641.27
2019-02-24T00:44:50.374Z,102637.22
2019-02-24T00:47:22.875Z,102636.91
2019-02-24T00:49:55.565Z,102630.05
2019-02-24T00:52:26.058Z,102630.73
2019-02-24T00:54:58.248Z,102627.67
2019-02-24T00:57:28.876Z,102625.17
2019-02-24T01:00:01.456Z,102625.02
2019-02-24T01:02:31.824Z,102618.69
2019-02-24T01:05:02.702Z,102621.66
2019-02-24T01:07:37.395Z,102625.71
2019-02-24T01:10:10.638Z,102619.25
2019-02-24T01:12:45.780Z,102625.05
2019-02-24T01:15:16.525Z,102616.44
2019-02-24T01:17:51.713Z,102624.24
2019-02-24T01:20:27.783Z,102621.15
2019-02-24T01:23:02.044Z,102619.34
2019-02-24T01:25:35.161Z,102615.91
2019-02-24T01:28:05.586Z,102614.72
2019-02-24T01:30:36.560Z,102618.00
2019-02-24T01:33:07.088Z,102620.03
2019-02-24T01:35:41.072Z,102625.83
2019-02-24T01:38:12.739Z,102616.00
2019-02-24T01:40:43.568Z,102626.61
2019-02-24T01:43:14.413Z,102624.70
2019-02-24T01:45:46.351Z,102620.18
2019-02-24T01:48:16.763Z,102622.86
2019-02-24T01:50:49.165Z,102627.67
2019-02-24T01:53:19.268Z,102623.84
2019-02-24T01:55:52.794Z,102635.55
2019-02-24T01:58:23.284Z,102631.08
2019-02-24T02:00:53.677Z,102620.50
2019-02-24T02:03:24.004Z,102607.84
2019-02-24T02:05:54.399Z,102606.30
2019-02-24T02:08:29.709Z,102608.15
2019-02-24T02:11:00.099Z,102605.99
2019-02-24T02:13:30.564Z,102607.93
2019-02-24T02:16:00.886Z,102610.83
2019-02-24T02:18:31.552Z,102614.73
2019-02-24T02:21:02.277Z,102614.42
2019-02-24T02:23:32.789Z,102622.75
2019-02-24T02:26:03.182Z,102617.76
2019-02-24T02:28:33.546Z,102614.55
2019-02-24T02:31:06.910Z,102612.77
2019-02-24T02:33:37.670Z,102607.84
2019-02-24T02:36:08.378Z,102607.09
2019-02-24T02:38:41.668Z,102600.75
2019-02-24T02:41:12.038Z,102600.75
2019-02-24T02:43:42.809Z,102603.03
2019-02-24T02:46:13.309Z,102594.89
2019-02-24T02:48:43.964Z,102579.85
2019-02-24T02:51:14.562Z,102577.33
2019-02-24T02:53:45.509Z,102576.80
2019-02-24T02:56:19.108Z,102568.97
2019-02-24T02:58:54.153Z,102567.09
2019-02-24T03:01:22.510Z,102567.75
2019-02-24T03:03:52.952Z,102561.29
2019-02-24T03:06:42.343Z,102578.42
2019-02-24T03:09:13.036Z,102580.45
2019-02-24T03:11:43.585Z,102584.97
2019-02-24T03:14:14.084Z,102579.91
2019-02-24T03:16:44.544Z,102581.88
2019-02-24T03:19:19.671Z,102605.68
2019-02-24T03:21:50.068Z,102610.02
2019-02-24T03:24:20.420Z,102617.22
2019-02-24T03:26:50.736Z,102614.51
2019-02-24T03:29:23.114Z,102621.44
2019-02-24T03:31:55.616Z,102618.69
2019-02-24T03:34:27.581Z,102615.11
2019-02-24T03:36:58.259Z,102610.58
2019-02-24T03:39:28.670Z,102605.21
2019-02-24T03:41:59.099Z,102613.64
2019-02-24T03:44:29.490Z,102618.94
2019-02-24T03:47:00.171Z,102612.36
2019-02-24T03:49:31.849Z,102615.64
2019-02-24T03:52:02.539Z,102602.78
2019-02-24T03:54:32.864Z,102592.64
2019-02-24T03:57:03.217Z,102594.36
2019-02-24T03:59:33.869Z,102607.37
2019-02-24T04:02:04.215Z,102604.81
2019-02-24T04:04:34.712Z,102615.52
2019-02-24T04:07:11.899Z,102600.38
2019-02-24T04:09:44.390Z,102597.63
2019-02-24T04:12:14.756Z,102598.66
2019-02-24T04:14:45.146Z,102596.91
2019-02-24T04:17:15.509Z,102600.81
2019-02-24T04:19:45.901Z,102595.70
2019-02-24T04:22:16.315Z,102584.91
2019-02-24T04:24:56.713Z,102588.05
2019-02-24T04:27:27.110Z,102585.84
2019-02-24T04:29:57.510Z,102588.41
2019-02-24T04:32:29.766Z,102588.49
2019-02-24T04:35:00.510Z,102595.77
2019-02-24T04:37:31.345Z,102598.85
2019-02-24T04:40:02.086Z,102597.48
2019-02-24T04:42:32.671Z,102589.42
2019-02-24T04:45:03.006Z,102577.39
2019-02-24T04:47:33.526Z,102585.42
2019-02-24T04:50:03.973Z,102578.69
2019-02-24T04:52:34.451Z,102577.52
2019-02-24T04:55:05.484Z,102585.78
2019-02-24T04:57:35.887Z,102587.34
2019-02-24T05:00:07.170Z,102576.24
2019-02-24T05:02:37.643Z,102571.84
2019-02-24T05:05:08.178Z,102573.13
2019-02-24T05:07:38.580Z,102578.05
2019-02-24T05:10:08.969Z,102574.38
2019-02-24T05:12:39.345Z,102564.88
2019-02-24T05:15:09.694Z,102561.42
2019-02-24T05:17:40.452Z,102558.02
2019-02-24T05:20:11.117Z,102549.77
2019-02-24T05:22:41.588Z,102555.19
2019-02-24T05:25:12.076Z,102559.37
2019-02-24T05:27:42.645Z,102543.89
2019-02-24T05:30:13.075Z,102539.91
2019-02-24T05:32:45.339Z,102540.38
2019-02-24T05:35:18.553Z,102532.75
2019-02-24T05:37:49.372Z,102534.09
2019-02-24T05:40:19.717Z,102526.83
2019-02-24T05:42:50.117Z,102519.91
2019-02-24T05:45:22.208Z,102525.14
2019-02-24T05:47:52.673Z,102530.57
2019-02-24T05:50:23.091Z,102527.61
2019-02-24T05:52:53.776Z,102513.67
2019-02-24T05:55:27.431Z,102512.48
2019-02-24T05:57:57.911Z,102504.09
2019-02-24T06:00:28.721Z,102509.30
2019-02-24T06:02:59.177Z,102520.75
2019-02-24T06:05:29.566Z,102523.80
2019-02-24T06:07:59.988Z,102529.41
2019-02-24T06:10:30.670Z,102535.41
2019-02-24T06:13:01.050Z,102524.68
2019-02-24T06:15:32.031Z,102517.20
2019-02-24T06:18:02.672Z,102519.31
2019-02-24T06:20:33.103Z,102521.66
2019-02-24T06:23:03.505Z,102522.56
2019-02-24T06:25:33.925Z,102529.30
2019-02-24T06:28:04.385Z,102523.74
2019-02-24T06:30:35.159Z,102519.34
2019-02-24T06:33:05.815Z,102521.80
2019-02-24T06:35:36.224Z,102530.16
2019-02-24T06:38:09.935Z,102532.50
2019-02-24T06:40:40.764Z,102526.81
2019-02-24T06:43:12.312Z,102520.58
2019-02-24T06:45:43.382Z,102522.67
2019-02-24T06:48:14.582Z,102530.10
2019-02-24T06:50:55.946Z,102543.52
2019-02-24T06:53:27.159Z,102548.32
2019-02-24T06:55:57.664Z,102552.87
2019-02-24T06:58:30.535Z,102554.20
2019-02-24T07:01:01.915Z,102551.13
2019-02-24T07:03:32.703Z,102552.00
2019-02-24T07:06:06.143Z,102553.25
2019-02-24T07:08:36.575Z,102553.70
2019-02-24T07:11:07.341Z,102560.75
2019-02-24T07:13:38.417Z,102571.83
2019-02-24T07:16:08.926Z,102569.40
2019-02-24T07:18:39.583Z,102560.66
2019-02-24T07:21:10.094Z,102566.89
2019-02-24T07:23:41.253Z,102563.00
2019-02-24T07:26:11.762Z,102558.95
2019-02-24T07:28:42.519Z,102555.98
2019-02-24T07:31:12.965Z,102550.90
2019-02-24T07:33:43.377Z,102540.62
2019-02-24T07:36:14.171Z,102545.39
2019-02-24T07:38:44.573Z,102540.45
2019-02-24T07:41:14.963Z,102538.48
2019-02-24T07:43:45.481Z,102544.73
2019-02-24T07:46:15.840Z,102542.17
2019-02-24T07:48:46.400Z,102545.43
2019-02-24T07:51:16.996Z,102543.61
2019-02-24T07:53:47.736Z,102545.81
2019-02-24T07:56:18.134Z,102551.08
2019-02-24T07:58:49.082Z,102548.17
2019-02-24T08:01:19.449Z,102545.09
2019-02-24T08:03:49.816Z,102558.48
2019-02-24T08:06:25.891Z,102555.23
2019-02-24T08:08:56.932Z,102549.56
2019-02-24T08:11:29.415Z,102549.23
2019-02-24T08:13:59.740Z,102543.59
2019-02-24T08:16:31.306Z,102536.31
2019-02-24T08:19:02.124Z,102540.42
2019-02-24T08:21:32.562Z,102542.29
2019-02-24T08:24:03.204Z,102535.55
2019-02-24T08:26:33.619Z,102538.83
2019-02-24T08:29:03.994Z,102544.25
2019-02-24T08:31:34.358Z,102543.73
2019-02-24T08:34:04.720Z,102546.54
2019-02-24T08:36:38.001Z,102546.00
2019-02-24T08:39:08.551Z,102550.61
2019-02-24T08:41:39.041Z,102556.80
2019-02-24T08:44:09.433Z,102557.88
2019-02-24T08:46:39.778Z,102554.17
2019-02-24T08:49:10.127Z,102556.89
2019-02-24T08:51:40.483Z,102558.02
2019-02-24T08:54:11.499Z,102559.80
2019-02-24T08:56:43.029Z,102554.90
2019-02-24T08:59:13.760Z,102552.00
2019-02-24T09:01:44.468Z,102560.87
2019-02-24T09:04:14.830Z,102566.92
2019-02-24T09:06:45.728Z,102578.63
2019-02-24T09:09:16.077Z,102588.69
2019-02-24T09:11:46.404Z,102596.53
2019-02-24T09:14:16.845Z,102610.45
2019-02-24T09:16:47.261Z,102610.52
2019-02-24T09:19:22.392Z,102608.48
2019-02-24T09:21:52.727Z,102615.81
2019-02-24T09:24:28.580Z,102619.56
2019-02-24T09:26:59.312Z,102615.54
2019-02-24T09:29:29.682Z,102615.20
2019-02-24T09:32:00.644Z,102609.53
2019-02-24T09:34:31.376Z,102612.36
2019-02-24T09:37:01.838Z,102610.27
2019-02-24T09:39:33.878Z,102611.64
2019-02-24T09:42:04.237Z,102613.69
2019-02-24T09:44:34.993Z,102622.87
2019-02-24T09:47:05.383Z,102617.99
2019-02-24T09:49:35.916Z,102610.36
2019-02-24T09:52:06.705Z,102602.06
2019-02-24T09:54:37.028Z,102604.73
2019-02-24T09:57:07.453Z,102603.45
2019-02-24T09:59:38.108Z,102600.13
2019-02-24T10:02:11.318Z,102594.15
2019-02-24T10:04:41.766Z,102588.20
2019-02-24T10:07:12.126Z,102587.39
2019-02-24T10:09:43.921Z,102570.75
2019-02-24T10:12:14.381Z,102563.55
2019-02-24T10:14:44.900Z,102558.84
2019-02-24T10:17:15.329Z,102564.53
2019-02-24T10:19:45.691Z,102560.44
2019-02-24T10:22:16.063Z,102563.32
2019-02-24T10:24:46.446Z,102568.94
2019-02-24T10:27:29.627Z,102563.96
2019-02-24T10:30:00.040Z,102554.73
2019-02-24T10:32:34.160Z,102548.16
2019-02-24T10:35:04.810Z,102555.70
2019-02-24T10:37:35.277Z,102556.16
2019-02-24T10:40:07.642Z,102556.05
2019-02-24T10:42:40.479Z,102557.72
2019-02-24T10:45:17.165Z,102555.86
2019-02-24T10:47:47.606Z,102544.75
2019-02-24T10:50:18.235Z,102544.30
2019-02-24T10:52:48.808Z,102548.54
2019-02-24T10:55:19.127Z,102547.23
2019-02-24T10:57:49.784Z,102545.13
2019-02-24T11:00:20.419Z,102537.12
2019-02-24T11:02:50.841Z,102524.84
2019-02-24T11:05:22.497Z,102510.22
2019-02-24T11:07:53.006Z,102508.53
2019-02-24T11:10:23.476Z,102514.81
2019-02-24T11:12:53.955Z,102528.16
2019-02-24T11:15:26.140Z,102535.27
2019-02-24T11:17:56.977Z,102543.92
2019-02-24T11:20:27.380Z,102546.84
2019-02-24T11:22:58.109Z,102540.45
2019-02-24T11:25:30.520Z,102546.30
2019-02-24T11:28:00.998Z,102540.78
2019-02-24T11:30:31.603Z,102545.37
2019-02-24T11:33:05.343Z,102554.27
2019-02-24T11:35:37.768Z,102550.12
2019-02-24T11:38:08.168Z,102550.65
2019-02-24T11:40:38.676Z,102551.78
2019-02-24T11:43:09.674Z,102553.53
2019-02-24T11:45:41.293Z,102542.55
2019-02-24T11:48:19.015Z,102534.18
2019-02-24T11:50:51.745Z,102525.27
2019-02-24T11:53:28.748Z,102523.64
2019-02-24T11:56:06.851Z,102528.97
2019-02-24T11:58:36.057Z,102534.34
2019-02-24T12:01:08.558Z,102530.30
2019-02-24T12:03:39.148Z,102529.91
2019-02-24T12:06:18.750Z,102538.41
2019-02-24T12:08:49.199Z,102535.70
2019-02-24T12:11:21.986Z,102541.44
2019-02-24T12:13:52.718Z,102546.22
2019-02-24T12:16:31.673Z,102539.83
2019-02-24T12:19:03.993Z,102542.44
2019-02-24T12:21:36.951Z,102538.02
2019-02-24T12:24:07.458Z,102550.91
2019-02-24T12:26:37.856Z,102552.00
2019-02-24T12:29:08.290Z,102550.18
2019-02-24T12:31:38.622Z,102537.00
2019-02-24T12:34:11.926Z,102529.86
2019-02-24T12:36:45.117Z,102520.08
2019-02-24T12:39:15.864Z,102521.94
2019-02-24T12:41:51.579Z,102518.63
2019-02-24T12:44:25.256Z,102514.21
2019-02-24T12:46:55.931Z,102507.99
2019-02-24T12:49:27.895Z,102522.40
2019-02-24T12:51:58.852Z,102516.36
2019-02-24T12:54:29.308Z,102506.77
2019-02-24T12:57:04.964Z,102514.13
2019-02-24T12:59:35.653Z,102513.94
2019-02-24T13:02:06.392Z,102514.87
2019-02-24T13:04:41.026Z,102520.61
2019-02-24T13:07:12.513Z,102519.66
2019-02-24T13:09:43.212Z,102521.53
2019-02-24T13:12:14.994Z,102505.34
2019-02-24T13:14:51.225Z,102498.78
2019-02-24T13:17:29.247Z,102504.44
2019-02-24T13:20:10.063Z,102500.02
2019-02-24T13:22:41.133Z,102496.38
2019-02-24T13:25:17.412Z,102506.12
2019-02-24T13:27:50.828Z,102506.64
2019-02-24T13:30:21.950Z,102507.05
2019-02-24T13:32:52.756Z,102503.19
2019-02-24T13:35:23.206Z,102497.81
2019-02-24T13:37:53.806Z,102494.27
2019-02-24T13:40:24.561Z,102490.77
2019-02-24T13:42:55.193Z,102486.92
2019-02-24T13:45:26.987Z,102478.04
2019-02-24T13:47:57.680Z,102486.47
2019-02-24T13:50:28.341Z,102486.49
2019-02-24T13:52:58.706Z,102487.72
2019-02-24T13:55:36.239Z,102492.85
2019-02-24T13:58:08.305Z,102489.20
2019-02-24T14:00:38.727Z,102487.59
2019-02-24T14:03:09.392Z,102482.77
2019-02-24T14:05:39.746Z,102480.84
2019-02-24T14:08:11.023Z,102473.77
2019-02-24T14:10:41.558Z,102477.04
2019-02-24T14:13:12.169Z,102474.72
2019-02-24T14:15:42.533Z,102468.27
2019-02-24T14:18:13.152Z,102467.34
2019-02-24T14:20:43.568Z,102470.51
2019-02-24T14:23:16.663Z,102466.23
2019-02-24T14:25:47.516Z,102464.22
2019-02-24T14:28:17.926Z,102459.68
2019-02-24T14:30:55.138Z,102461.59
2019-02-24T14:33:28.661Z,102466.45
2019-02-24T14:35:59.271Z,102465.38
2019-02-24T14:38:29.755Z,102466.48
2019-02-24T14:41:01.291Z,102479.03
2019-02-24T14:43:31.745Z,102479.64
2019-02-24T14:46:02.248Z,102473.95
2019-02-24T14:48:41.807Z,102476.06
2019-02-24T14:51:12.245Z,102473.58
2019-02-24T14:53:42.761Z,102478.39
2019-02-24T14:56:13.192Z,102478.38
2019-02-24T14:58:43.944Z,102472.76
2019-02-24T15:01:14.641Z,102473.34
2019-02-24T15:03:45.188Z,102466.22
2019-02-24T15:06:15.541Z,102466.27
2019-02-24T15:08:46.244Z,102468.97
2019-02-24T15:11:25.599Z,102472.33
2019-02-24T15:14:09.527Z,102474.50
2019-02-24T15:16:40.144Z,102471.08
2019-02-24T15:19:10.654Z,102467.86
2019-02-24T15:21:41.236Z,102469.58
2019-02-24T15:24:11.610Z,102462.73
2019-02-24T15:26:42.066Z,102466.27
2019-02-24T15:29:12.404Z,102463.06
2019-02-24T15:31:42.788Z,102458.70
2019-02-24T15:34:13.542Z,102453.47
2019-02-24T15:36:44.157Z,102450.55
2019-02-24T15:39:15.528Z,102455.70
2019-02-24T15:41:46.404Z,102452.28
2019-02-24T15:44:16.841Z,102452.02
2019-02-24T15:46:53.332Z,102456.84
2019-02-24T15:49:23.813Z,102454.25
2019-02-24T15:51:54.291Z,102449.23
2019-02-24T15:54:29.196Z,102458.09
2019-02-24T15:57:01.715Z,102453.56
2019-02-24T15:59:36.225Z,102449.60
2019-02-24T16:02:16.306Z,102452.22
2019-02-24T16:04:57.685Z,102456.22
2019-02-24T16:07:48.680Z,102445.05
2019-02-24T16:10:22.691Z,102449.52
2019-02-24T16:13:00.274Z,102459.96
2019-02-24T16:15:30.780Z,102460.27
2019-02-24T16:18:01.168Z,102458.34
2019-02-24T16:20:31.700Z,102452.43
2019-02-24T16:23:03.448Z,102453.86
2019-02-24T16:25:33.916Z,102447.34
2019-02-24T16:28:04.486Z,102445.42
2019-02-24T16:30:35.062Z,102447.05
2019-02-24T16:33:10.808Z,102451.12
2019-02-24T16:35:40.759Z,102450.67
2019-02-24T16:38:11.542Z,102452.38
2019-02-24T16:40:41.789Z,102459.09
2019-02-24T16:43:12.472Z,102458.70
2019-02-24T16:45:42.897Z,102454.08
2019-02-24T16:48:13.389Z,102455.30
2019-02-24T16:50:43.908Z,102451.14
2019-02-24T16:53:15.654Z,102452.80
2019-02-24T16:55:46.255Z,102450.81
2019-02-24T16:58:17.041Z,102456.39
2019-02-24T17:00:47.977Z,102459.45
2019-02-24T17:03:21.696Z,102457.33
2019-02-24T17:05:52.271Z,102461.20
2019-02-24T17:08:25.564Z,102454.01
2019-02-24T17:10:56.186Z,102453.55
2019-02-24T17:13:27.020Z,102463.02
2019-02-24T17:15:57.542Z,102464.94
2019-02-24T17:18:28.272Z,102470.95
2019-02-24T17:21:02.316Z,102477.87
2019-02-24T17:23:33.222Z,102484.12
2019-02-24T17:26:05.278Z,102484.64
2019-02-24T17:28:37.737Z,102482.98
2019-02-24T17:31:17.515Z,102492.05
2019-02-24T17:33:48.446Z,102491.47
2019-02-24T17:36:20.935Z,102492.13
2019-02-24T17:38:51.636Z,102490.71
2019-02-24T17:41:21.985Z,102494.06
2019-02-24T17:43:52.463Z,102492.73
2019-02-24T17:46:27.003Z,102496.14
2019-02-24T17:48:57.463Z,102507.09
2019-02-24T17:51:27.999Z,102508.42
2019-02-24T17:53:58.382Z,102507.98
2019-02-24T17:56:29.044Z,102508.31
2019-02-24T17:58:59.746Z,102505.31
2019-02-24T18:01:36.065Z,102508.20
2019-02-24T18:04:05.855Z,102517.20
2019-02-24T18:06:36.382Z,102509.73
2019-02-24T18:09:10.260Z,102511.39
2019-02-24T18:11:41.457Z,102512.11
2019-02-24T18:14:11.916Z,102505.54
2019-02-24T18:16:42.764Z,102508.23
2019-02-24T18:19:15.928Z,102507.87
2019-02-24T18:21:48.486Z,102510.05
2019-02-24T18:24:18.986Z,102502.92
2019-02-24T18:26:49.647Z,102499.61
2019-02-24T18:29:23.860Z,102493.19
2019-02-24T18:31:54.383Z,102496.52
2019-02-24T18:34:24.932Z,102494.53
2019-02-24T18:36:55.748Z,102489.92
2019-02-24T18:39:26.518Z,102487.96
2019-02-24T18:41:57.117Z,102481.74
2019-02-24T18:44:27.690Z,102480.73
2019-02-24T18:46:58.249Z,102484.20
2019-02-24T18:49:33.029Z,102483.52
2019-02-24T18:52:05.304Z,102485.86
2019-02-24T18:54:35.900Z,102486.77
2019-02-24T18:57:08.089Z,102482.40
2019-02-24T18:59:38.595Z,102482.81
2019-02-24T19:02:09.123Z,102472.69
2019-02-24T19:04:39.982Z,102483.64
2019-02-24T19:07:10.598Z,102482.66
2019-02-24T19:09:41.059Z,102479.05
2019-02-24T19:12:11.526Z,102480.06
2019-02-24T19:14:42.101Z,102482.34
2019-02-24T19:17:12.545Z,102487.98
2019-02-24T19:19:43.231Z,102487.78
2019-02-24T19:22:13.768Z,102485.81
2019-02-24T19:24:44.413Z,102480.11
2019-02-24T19:27:23.735Z,102487.86
2019-02-24T19:29:55.713Z,102482.51
2019-02-24T19:32:32.399Z,102486.91
2019-02-24T19:35:18.859Z,102483.30
2019-02-24T19:37:53.775Z,102482.47
2019-02-24T19:40:26.655Z,102476.29
2019-02-24T19:42:59.268Z,102485.27
2019-02-24T19:45:29.744Z,102490.45
2019-02-24T19:48:00.187Z,102488.95
2019-02-24T19:50:43.316Z,102493.77
2019-02-24T19:53:14.547Z,102496.91
2019-02-24T19:55:47.352Z,102492.86
2019-02-24T19:58:19.025Z,102496.88
2019-02-24T20:00:59.831Z,102499.66
2019-02-24T20:03:32.360Z,102508.70
2019-02-24T20:06:06.084Z,102512.20
2019-02-24T20:08:42.331Z,102509.09
2019-02-24T20:11:13.018Z,102509.87
2019-02-24T20:13:52.008Z,102518.57
2019-02-24T20:16:31.209Z,102515.07
2019-02-24T20:19:08.139Z,102518.48
2019-02-24T20:21:39.062Z,102525.91
2019-02-24T20:24:09.624Z,102522.76
2019-02-24T20:26:45.514Z,102526.95
2019-02-24T20:29:15.366Z,102512.95
2019-02-24T20:31:46.315Z,102518.61
2019-02-24T20:34:25.277Z,102518.06
2019-02-24T20:36:51.489Z,102516.59
2019-02-24T20:39:24.116Z,102514.63
2019-02-24T20:41:54.626Z,102511.12
2019-02-24T20:44:25.087Z,102507.73
2019-02-24T20:46:55.527Z,102515.50
2019-02-24T20:49:30.994Z,102506.20
2019-02-24T20:52:04.270Z,102502.84
2019-02-24T20:54:37.257Z,102506.60
2019-02-24T20:57:08.146Z,102503.67
2019-02-24T20:59:42.361Z,102493.98
2019-02-24T21:02:13.019Z,102493.93
2019-02-24T21:04:46.725Z,102504.48
2019-02-24T21:07:17.144Z,102508.81
2019-02-24T21:09:47.707Z,102513.58
2019-02-24T21:12:18.601Z,102506.63
2019-02-24T21:14:49.922Z,102501.80
2019-02-24T21:17:21.378Z,102503.88
2019-02-24T21:19:51.982Z,102502.98
2019-02-24T21:22:23.060Z,102508.09
2019-02-24T21:24:53.796Z,102509.93
2019-02-24T21:27:24.220Z,102511.80
2019-02-24T21:29:54.666Z,102504.16
2019-02-24T21:32:27.649Z,102508.11
2019-02-24T21:34:58.158Z,102516.83
2019-02-24T21:37:39.242Z,102516.16
2019-02-24T21:40:10.861Z,102517.81
2019-02-24T21:42:46.881Z,102512.44
2019-02-24T21:45:19.853Z,102510.80
2019-02-24T21:47:51.942Z,102514.94
2019-02-24T21:50:22.441Z,102515.23
2019-02-24T21:52:55.706Z,102509.66
2019-02-24T21:55:26.333Z,102518.53
2019-02-24T21:58:04.418Z,102521.31
2019-02-24T22:00:34.230Z,102515.13
2019-02-24T22:03:10.299Z,102507.23
2019-02-24T22:05:51.084Z,102512.40
2019-02-24T22:08:19.595Z,102515.05
2019-02-24T22:10:52.832Z,102512.06
2019-02-24T22:13:23.199Z,102516.07
2019-02-24T22:15:54.036Z,102525.70
2019-02-24T22:18:32.184Z,102529.17
2019-02-24T22:21:08.019Z,102531.07
2019-02-24T22:24:30.954Z,102527.17
2019-02-24T22:26:44.478Z,102529.38
2019-02-24T22:29:16.644Z,102522.58
2019-02-24T22:31:46.974Z,102523.73
2019-02-24T22:34:38.960Z,102522.50
2019-02-24T22:37:10.263Z,102517.70
2019-02-24T22:39:40.783Z,102521.50
2019-02-24T22:42:11.445Z,102524.91
2019-02-24T22:44:43.374Z,102529.55
2019-02-24T22:47:16.885Z,102527.50
2019-02-24T22:49:47.491Z,102543.84
2019-02-24T22:52:18.087Z,102552.08
2019-02-24T22:54:50.602Z,102551.81
2019-02-24T22:57:20.923Z,102558.19
2019-02-24T22:59:53.469Z,102558.31
2019-02-24T23:02:24.848Z,102559.48
2019-02-24T23:05:06.516Z,102557.93
2019-02-24T23:07:38.708Z,102559.58
2019-02-24T23:10:11.843Z,102548.91
2019-02-24T23:12:42.446Z,102551.05
2019-02-24T23:15:16.083Z,102552.80
2019-02-24T23:17:49.696Z,102549.06
2019-02-24T23:20:20.404Z,102545.05
2019-02-24T23:23:00.619Z,102548.05
2019-02-24T23:25:31.834Z,102540.44
2019-02-24T23:28:04.308Z,102542.45
2019-02-24T23:30:35.075Z,102546.03
2019-02-24T23:33:11.248Z,102537.95
2019-02-24T23:35:46.389Z,102530.20
2019-02-24T23:38:18.131Z,102535.57
2019-02-24T23:40:50.361Z,102530.43
2019-02-24T23:43:23.424Z,102537.09
2019-02-24T23:45:54.022Z,102536.03
2019-02-24T23:48:24.595Z,102530.31
2019-02-24T23:50:56.740Z,102524.69
2019-02-24T23:53:27.786Z,102521.59
2019-02-24T23:55:58.455Z,102520.19
2019-02-24T23:58:30.706Z,102526.19
